Terminal Aerodrome Forecast
Issued by NWS

Home | Current Version | Previous Version | Text Only | Print | Product List | Glossary On
Versions: 1 2 3 4 5 6 7 8 9 10 11 12 13 14 15 16 17 18 19 20 21 22 23 24 25 26 27 28 29 30 31 32 33 34
295
FTUS41 KOKX 252225 AAB
TAFHPN
TAF AMD
KHPN 252225Z 2522/2618 10009KT 1/2SM -DZ FG OVC002
     FM252300 VRB05KT 1/2SM -DZ FG VV002
     FM260300 VRB03KT 1/4SM FG OVC004
     FM260900 30007KT 3SM BR SCT004 OVC015
     FM261100 29010KT P6SM FEW010 BKN025
     FM261300 28012KT P6SM SCT035 SCT100
     FM261600 27012G20KT P6SM SCT250=

USA.gov is the U.S. government's official web portal to all federal, state and local government web resources and services.